Time;durP1;ratioP1;P1;durP2;ratioP2;P2;SDS_P1;SDS_P2;PMS_P1;PMS_P2;Temp;Humidity;BMP_temperature;BMP_pressure;BME280_temperature;BME280_humidity;BME280_pressure;Samples;Min_cycle;Max_cycle;Signal;HPM_P1;HPM_P2
2023/01/26 00:00:58;;;;;;;3.23;3.00;;;;;-0.50;96352.00;;;;5034494;28;20228;-62
2023/01/26 00:03:27;;;;;;;5.50;2.63;;;;;-0.40;96354.00;;;;5034467;28;20607;-62
2023/01/26 00:05:55;;;;;;;3.27;2.03;;;;;-0.50;96350.00;;;;5034444;28;20276;-62
2023/01/26 00:08:22;;;;;;;2.37;2.17;;;;;-0.60;96344.00;;;;5016478;28;20201;-62
2023/01/26 00:10:50;;;;;;;2.17;2.07;;;;;-0.40;96344.00;;;;5016390;28;20199;-62
2023/01/26 00:13:19;;;;;;;3.57;2.20;;;;;-0.40;96337.00;;;;5034334;28;20267;-62
2023/01/26 00:15:46;;;;;;;2.17;2.07;;;;;-0.40;96338.00;;;;5033999;28;20209;-61
2023/01/26 00:18:15;;;;;;;2.00;1.90;;;;;-0.30;96327.00;;;;5033980;28;20204;-61
2023/01/26 00:20:44;;;;;;;2.50;1.90;;;;;-0.50;96319.00;;;;5033893;28;20767;-61
2023/01/26 00:23:11;;;;;;;0.93;0.93;;;;;-0.50;96329.00;;;;5033984;28;20189;-61
2023/01/26 00:25:40;;;;;;;2.20;2.03;;;;;-0.50;96320.00;;;;5033730;28;20283;-61
2023/01/26 00:28:07;;;;;;;1.80;1.70;;;;;-0.40;96318.00;;;;5033733;28;20196;-61
2023/01/26 00:30:34;;;;;;;1.30;1.30;;;;;-0.40;96321.00;;;;5034038;28;20665;-61
2023/01/26 00:33:02;;;;;;;2.63;2.47;;;;;-0.40;96314.00;;;;5015976;28;20688;-61
2023/01/26 00:35:29;;;;;;;1.80;1.70;;;;;-0.40;96312.00;;;;5033672;28;20261;-61
2023/01/26 00:37:58;;;;;;;1.87;1.47;;;;;-0.40;96302.00;;;;5033563;28;20240;-61
2023/01/26 00:40:25;;;;;;;2.00;1.90;;;;;-0.30;96294.00;;;;5033559;28;20209;-63
2023/01/26 00:42:53;;;;;;;1.40;1.30;;;;;-0.40;96291.00;;;;5033564;28;20194;-61
2023/01/26 00:45:20;;;;;;;2.07;1.93;;;;;-0.50;96294.00;;;;5033396;28;20217;-61
2023/01/26 00:47:48;;;;;;;1.00;1.00;;;;;-0.50;96293.00;;;;5033816;28;20205;-61
2023/01/26 00:50:16;;;;;;;3.13;2.13;;;;;-0.30;96289.00;;;;5033560;28;20191;-61
2023/01/26 00:52:43;;;;;;;1.90;1.80;;;;;-0.70;96276.00;;;;5033620;28;20538;-61
2023/01/26 00:55:12;;;;;;;2.03;1.93;;;;;-0.90;96281.00;;;;5033640;28;20212;-62
2023/01/26 00:57:39;;;;;;;1.63;1.53;;;;;-0.80;96283.00;;;;5033423;28;20670;-62
2023/01/26 01:00:12;;;;;;;5.23;2.27;;;;;-0.80;96279.00;;;;5033684;28;20204;-60
2023/01/26 01:02:39;;;;;;;2.67;1.80;;;;;-0.70;96279.00;;;;5033242;28;20730;-61
2023/01/26 01:05:07;;;;;;;2.83;2.63;;;;;-0.60;96272.00;;;;5033123;28;20221;-60
2023/01/26 01:07:34;;;;;;;13.97;2.30;;;;;-0.60;96293.00;;;;5033410;28;20197;-63
2023/01/26 01:10:02;;;;;;;1.87;1.77;;;;;-0.60;96288.00;;;;5033437;28;20194;-62
2023/01/26 01:12:31;;;;;;;1.77;1.67;;;;;-0.50;96277.00;;;;5033165;28;20193;-61
2023/01/26 01:14:58;;;;;;;4.50;2.13;;;;;-0.50;96272.00;;;;5033211;28;20221;-61
2023/01/26 01:17:26;;;;;;;1.43;1.43;;;;;-0.50;96272.00;;;;5033013;28;20198;-61
2023/01/26 01:19:53;;;;;;;2.83;2.37;;;;;-0.40;96277.00;;;;5033372;28;20528;-61
2023/01/26 01:22:21;;;;;;;1.17;1.17;;;;;-0.30;96282.00;;;;5032950;28;20276;-62
2023/01/26 01:24:48;;;;;;;1.97;1.87;;;;;-0.30;96275.00;;;;5032786;28;20247;-61
2023/01/26 01:27:16;;;;;;;2.27;1.83;;;;;-0.30;96278.00;;;;5032916;28;20205;-62
2023/01/26 01:29:44;;;;;;;2.17;1.97;;;;;-0.30;96276.00;;;;5033219;28;20553;-62
2023/01/26 01:32:12;;;;;;;2.43;2.30;;;;;-0.20;96276.00;;;;5033240;28;20268;-62
2023/01/26 01:34:39;;;;;;;2.00;1.90;;;;;-0.30;96272.00;;;;5032815;28;20244;-62
2023/01/26 01:37:07;;;;;;;2.00;1.90;;;;;-0.50;96272.00;;;;5015256;28;20208;-62
2023/01/26 01:39:34;;;;;;;2.07;1.97;;;;;-0.50;96260.00;;;;5032866;28;20197;-62
2023/01/26 01:42:02;;;;;;;1.37;1.27;;;;;-0.60;96268.00;;;;5015037;28;20220;-62
2023/01/26 01:44:29;;;;;;;2.20;2.10;;;;;-0.50;96271.00;;;;5015029;28;20218;-61
2023/01/26 01:47:01;;;;;;;1.17;1.13;;;;;-0.60;96257.00;;;;5032801;28;20206;-61
2023/01/26 01:49:32;;;;;;;1.43;1.33;;;;;-0.60;96254.00;;;;5033076;28;20189;-61
2023/01/26 01:52:04;;;;;;;1.73;1.63;;;;;-0.60;96244.00;;;;5015233;28;20208;-61
2023/01/26 01:54:38;;;;;;;15.83;2.17;;;;;-0.60;96259.00;;;;5032659;28;20231;-61
2023/01/26 01:57:14;;;;;;;3.03;2.83;;;;;-0.60;96253.00;;;;5033266;28;20192;-61
2023/01/26 01:59:44;;;;;;;3.07;2.40;;;;;-0.50;96243.00;;;;5032999;28;20191;-61
2023/01/26 02:02:14;;;;;;;4.37;2.57;;;;;-0.60;96241.00;;;;5032868;28;20204;-61
2023/01/26 02:04:42;;;;;;;2.33;2.23;;;;;-0.80;96236.00;;;;5032562;28;20237;-61
2023/01/26 02:07:11;;;;;;;1.77;1.67;;;;;-0.70;96237.00;;;;5036543;28;20201;-61
2023/01/26 02:12:29;;;;;;;1.63;1.50;;;;;-0.50;96234.00;;;;5036662;28;20188;-61
2023/01/26 02:14:58;;;;;;;2.77;2.57;;;;;-0.50;96231.00;;;;5018562;28;20752;-61
2023/01/26 02:17:27;;;;;;;1.73;1.63;;;;;-0.60;96240.00;;;;5036322;28;20196;-61
2023/01/26 02:20:03;;;;;;;2.17;2.07;;;;;-0.50;96235.00;;;;5018488;28;20206;-61
2023/01/26 02:22:42;;;;;;;1.73;1.60;;;;;-0.50;96234.00;;;;5036424;28;20604;-61
2023/01/26 02:25:19;;;;;;;2.03;1.87;;;;;-0.50;96239.00;;;;5036188;28;20226;-61
2023/01/26 02:27:48;;;;;;;3.50;1.63;;;;;-0.50;96238.00;;;;5036732;28;20193;-61
2023/01/26 02:30:17;;;;;;;1.83;1.73;;;;;-0.50;96247.00;;;;5018549;28;20214;-61
2023/01/26 02:32:44;;;;;;;3.67;3.27;;;;;-0.40;96244.00;;;;5036402;28;20629;-62
2023/01/26 02:35:12;;;;;;;1.63;1.53;;;;;-0.40;96249.00;;;;5036525;28;20223;-61
2023/01/26 02:37:39;;;;;;;1.33;1.33;;;;;-0.40;96229.00;;;;5035955;28;20190;-61
2023/01/26 02:40:13;;;;;;;2.43;2.23;;;;;-0.50;96223.00;;;;5036332;28;20205;-62
2023/01/26 02:42:40;;;;;;;8.73;1.83;;;;;-0.60;96234.00;;;;5035921;28;20206;-61
2023/01/26 02:45:12;;;;;;;2.23;2.13;;;;;-0.60;96221.00;;;;5035776;28;20272;-61
2023/01/26 02:47:40;;;;;;;1.70;1.60;;;;;-0.60;96222.00;;;;5035997;28;20236;-61
2023/01/26 02:50:07;;;;;;;1.70;1.60;;;;;-0.70;96228.00;;;;5035706;28;20194;-62
2023/01/26 02:52:35;;;;;;;2.17;2.07;;;;;-0.60;96220.00;;;;5035947;28;20196;-62
2023/01/26 02:57:48;;;;;;;0.97;0.97;;;;;-0.60;96219.00;;;;5035843;28;20188;-62
2023/01/26 03:00:21;;;;;;;3.33;1.40;;;;;-0.50;96219.00;;;;5035728;28;20202;-61
2023/01/26 03:02:50;;;;;;;1.70;1.53;;;;;-0.70;96218.00;;;;5035493;28;20689;-62
2023/01/26 03:05:18;;;;;;;5.57;2.53;;;;;-0.60;96229.00;;;;5035341;28;20221;-64
2023/01/26 03:07:45;;;;;;;1.33;1.30;;;;;-0.60;96218.00;;;;5035409;28;20275;-61
2023/01/26 03:10:14;;;;;;;3.07;2.87;;;;;-0.60;96219.00;;;;5035592;28;20204;-62
2023/01/26 03:12:42;;;;;;;1.90;1.80;;;;;-0.60;96218.00;;;;5035324;28;20193;-61
2023/01/26 03:28:59;;;;;;;2.07;1.77;;;;;-0.80;96206.00;;;;5002327;28;20221;-61
2023/01/26 03:31:27;;;;;;;2.43;2.30;;;;;-0.90;96203.00;;;;5017193;28;20251;-61
2023/01/26 03:33:55;;;;;;;1.30;1.20;;;;;-0.70;96209.00;;;;5035050;28;20204;-61
2023/01/26 03:36:23;;;;;;;1.77;1.67;;;;;-0.60;96201.00;;;;5035022;28;20217;-61
2023/01/26 03:38:50;;;;;;;5.40;1.97;;;;;-0.60;96200.00;;;;5017008;28;20270;-62
2023/01/26 03:57:49;;;;;;;2.47;2.30;;;;;-0.70;96181.00;;;;5034683;28;20185;-61
2023/01/26 04:00:17;;;;;;;1.93;1.83;;;;;-0.70;96175.00;;;;5034702;28;20675;-62
2023/01/26 04:08:25;;;;;;;1.13;1.13;;;;;-0.80;96166.00;;;;5034606;28;20192;-62
2023/01/26 04:10:54;;;;;;;2.20;2.00;;;;;-0.70;96170.00;;;;5034277;28;20185;-62
2023/01/26 04:21:39;;;;;;;1.83;1.73;;;;;-0.60;96152.00;;;;5034250;28;20209;-62
2023/01/26 04:24:08;;;;;;;2.53;2.40;;;;;-0.70;96157.00;;;;5034389;28;20193;-62
2023/01/26 04:26:36;;;;;;;2.20;1.67;;;;;-0.80;96175.00;;;;5033858;28;20266;-62
2023/01/26 04:29:05;;;;;;;2.07;1.97;;;;;-0.70;96168.00;;;;5033513;28;20193;-62
2023/01/26 04:31:33;;;;;;;2.67;2.47;;;;;-0.70;96167.00;;;;5034167;28;20553;-62
2023/01/26 04:34:01;;;;;;;1.70;1.60;;;;;-0.80;96168.00;;;;5016105;28;20599;-62
2023/01/26 04:36:29;;;;;;;2.60;2.40;;;;;-0.80;96161.00;;;;5033710;28;20218;-60
2023/01/26 04:38:58;;;;;;;2.00;1.90;;;;;-0.70;96167.00;;;;5034239;28;20197;-62
2023/01/26 04:41:25;;;;;;;3.40;1.50;;;;;-0.70;96175.00;;;;5033610;28;20251;-62
2023/01/26 04:43:53;;;;;;;3.17;2.10;;;;;-0.60;96170.00;;;;5015907;28;20694;-62
2023/01/26 04:46:20;;;;;;;2.57;2.33;;;;;-0.60;96164.00;;;;5033569;28;20212;-62
2023/01/26 04:48:48;;;;;;;1.73;1.63;;;;;-0.50;96166.00;;;;5033630;28;20194;-63
2023/01/26 04:51:18;;;;;;;18.03;2.90;;;;;-0.50;96156.00;;;;5033773;28;20197;-63
2023/01/26 04:53:46;;;;;;;1.83;1.73;;;;;-0.50;96161.00;;;;5033813;28;20185;-62
2023/01/26 04:56:22;;;;;;;1.60;1.10;;;;;-0.50;96158.00;;;;5033386;28;20696;-62
2023/01/26 04:58:50;;;;;;;1.43;1.43;;;;;-0.40;96154.00;;;;5033547;28;20181;-64
2023/01/26 05:01:18;;;;;;;2.93;2.70;;;;;-0.40;96148.00;;;;5033617;28;20252;-62
2023/01/26 05:03:45;;;;;;;1.00;1.00;;;;;-0.40;96158.00;;;;5033258;28;20221;-62
2023/01/26 05:06:13;;;;;;;1.53;1.50;;;;;-0.40;96148.00;;;;5015559;28;20222;-62
2023/01/26 05:08:40;;;;;;;3.03;2.83;;;;;-0.40;96147.00;;;;5033442;28;20197;-62
2023/01/26 05:11:08;;;;;;;2.87;2.40;;;;;-0.40;96147.00;;;;5033361;28;20256;-62
2023/01/26 05:13:36;;;;;;;2.23;2.03;;;;;-0.50;96152.00;;;;5033151;28;20244;-62
2023/01/26 05:16:04;;;;;;;1.90;1.80;;;;;-0.30;96161.00;;;;5015342;28;20589;-62
2023/01/26 05:18:32;;;;;;;4.20;2.33;;;;;-0.40;96155.00;;;;5033113;28;20248;-62
2023/01/26 05:21:00;;;;;;;1.17;1.17;;;;;-0.50;96146.00;;;;5033030;28;20244;-62
2023/01/26 05:23:28;;;;;;;0.77;0.77;;;;;-0.60;96155.00;;;;5015281;28;20218;-63
2023/01/26 05:25:56;;;;;;;1.20;1.20;;;;;-0.60;96155.00;;;;5015198;28;20226;-62
2023/01/26 05:28:24;;;;;;;2.07;1.97;;;;;-0.70;96156.00;;;;5033284;28;20255;-62
2023/01/26 05:30:53;;;;;;;5.43;2.87;;;;;-0.60;96149.00;;;;5033099;28;20201;-62
2023/01/26 05:33:20;;;;;;;3.43;3.17;;;;;-0.60;96140.00;;;;5033414;28;20197;-62
2023/01/26 05:35:48;;;;;;;1.97;1.87;;;;;-0.60;96148.00;;;;5033092;28;20296;-62
2023/01/26 05:38:16;;;;;;;2.93;1.50;;;;;-0.50;96154.00;;;;5015457;28;20205;-62
2023/01/26 05:40:43;;;;;;;2.50;1.90;;;;;-0.50;96142.00;;;;5034836;28;20257;-62
2023/01/26 05:43:11;;;;;;;1.67;1.57;;;;;-0.50;96145.00;;;;5037154;28;20221;-62
2023/01/26 05:45:38;;;;;;;2.13;1.37;;;;;-0.50;96147.00;;;;5037148;28;20307;-62
2023/01/26 05:48:07;;;;;;;1.83;1.73;;;;;-0.50;96152.00;;;;5037129;28;20200;-62
2023/01/26 05:50:35;;;;;;;2.83;2.60;;;;;-0.40;96151.00;;;;5037563;28;20198;-62
2023/01/26 05:53:02;;;;;;;1.63;1.53;;;;;-0.40;96151.00;;;;5037003;28;20197;-63
2023/01/26 05:55:30;;;;;;;0.80;0.80;;;;;-0.50;96156.00;;;;5037481;28;20268;-62
2023/01/26 05:57:57;;;;;;;1.90;1.80;;;;;-0.40;96161.00;;;;5019195;28;20256;-62
2023/01/26 06:00:25;;;;;;;1.00;1.00;;;;;-0.40;96151.00;;;;5036908;28;20190;-63
2023/01/26 06:02:53;;;;;;;1.10;1.10;;;;;-0.40;96161.00;;;;5036989;28;20213;-60
2023/01/26 06:05:22;;;;;;;2.80;2.43;;;;;-0.40;96145.00;;;;5036704;28;20561;-60
2023/01/26 06:07:49;;;;;;;1.23;1.23;;;;;-0.40;96145.00;;;;5037489;28;20288;-60
2023/01/26 06:10:17;;;;;;;1.60;1.30;;;;;-0.60;96145.00;;;;5018895;28;20204;-60
2023/01/26 06:12:45;;;;;;;1.57;1.53;;;;;-0.60;96149.00;;;;5036639;28;20189;-61
2023/01/26 06:15:12;;;;;;;1.00;1.00;;;;;-0.60;96144.00;;;;5036520;28;20222;-61
2023/01/26 06:17:40;;;;;;;1.20;1.20;;;;;-0.60;96158.00;;;;5036419;28;20700;-61
2023/01/26 06:20:08;;;;;;;1.33;1.30;;;;;-0.50;96157.00;;;;5036463;28;20253;-61
2023/01/26 06:22:37;;;;;;;1.67;1.57;;;;;-0.30;96153.00;;;;5036386;28;20217;-61
2023/01/26 06:25:05;;;;;;;3.83;2.13;;;;;-0.50;96152.00;;;;5036946;28;20248;-64
2023/01/26 06:27:33;;;;;;;1.90;1.80;;;;;-0.50;96151.00;;;;5036513;28;20195;-62
2023/01/26 06:30:00;;;;;;;1.73;1.63;;;;;-0.10;96156.00;;;;5036848;28;20252;-62
2023/01/26 06:32:30;;;;;;;2.50;2.23;;;;;0.20;96156.00;;;;5036592;28;20194;-64
2023/01/26 06:34:58;;;;;;;2.03;1.80;;;;;0.20;96156.00;;;;5036243;28;20264;-61
2023/01/26 06:37:25;;;;;;;1.10;1.10;;;;;0.50;96151.00;;;;5036959;28;20203;-61
2023/01/26 06:39:54;;;;;;;2.67;1.40;;;;;0.60;96156.00;;;;5036730;28;20199;-62
2023/01/26 06:42:22;;;;;;;2.13;2.03;;;;;0.70;96151.00;;;;5035963;28;20227;-61
2023/01/26 06:44:52;;;;;;;3.90;2.40;;;;;0.80;96142.00;;;;5036596;28;20222;-61
2023/01/26 06:47:19;;;;;;;1.27;1.23;;;;;0.80;96149.00;;;;5036275;28;20671;-61
2023/01/26 06:49:47;;;;;;;2.20;2.00;;;;;0.60;96154.00;;;;5036290;28;20716;-62
2023/01/26 06:52:27;;;;;;;2.20;2.10;;;;;0.60;96157.00;;;;5017973;28;20204;-62
2023/01/26 06:54:57;;;;;;;2.10;1.90;;;;;0.40;96149.00;;;;5035840;28;20226;-62
2023/01/26 06:57:24;;;;;;;0.90;0.90;;;;;0.20;96154.00;;;;5036144;28;20602;-62
2023/01/26 06:59:52;;;;;;;1.67;1.57;;;;;0.00;96160.00;;;;5036014;28;20198;-62
2023/01/26 07:02:21;;;;;;;1.23;1.03;;;;;0.00;96164.00;;;;5035758;28;20203;-62
2023/01/26 07:04:50;;;;;;;2.63;1.77;;;;;-0.10;96158.00;;;;5035713;28;20214;-62
2023/01/26 07:07:17;;;;;;;3.63;2.47;;;;;-0.10;96164.00;;;;5035670;28;20202;-62
2023/01/26 07:09:45;;;;;;;3.57;2.53;;;;;-0.10;96161.00;;;;5035599;28;20539;-62
2023/01/26 07:12:14;;;;;;;1.87;1.77;;;;;-0.10;96168.00;;;;5035518;28;20207;-62
2023/01/26 07:14:41;;;;;;;1.80;1.70;;;;;-0.30;96163.00;;;;5035408;28;20265;-62
2023/01/26 07:17:08;;;;;;;2.03;1.93;;;;;-0.40;96164.00;;;;5035453;28;20199;-62
2023/01/26 07:19:36;;;;;;;1.80;1.70;;;;;-0.40;96165.00;;;;5035733;28;20192;-62
2023/01/26 07:22:04;;;;;;;2.17;2.07;;;;;-0.30;96168.00;;;;5035682;28;20202;-62
2023/01/26 07:24:31;;;;;;;4.80;1.90;;;;;-0.40;96162.00;;;;5035040;28;20287;-62
2023/01/26 07:26:59;;;;;;;2.10;1.83;;;;;-0.30;96174.00;;;;5035239;28;20662;-62
2023/01/26 07:29:27;;;;;;;2.00;1.90;;;;;-0.20;96176.00;;;;5035203;28;20194;-62
2023/01/26 07:31:55;;;;;;;1.40;1.30;;;;;-0.40;96180.00;;;;5035221;28;20194;-62
2023/01/26 07:34:22;;;;;;;1.33;1.30;;;;;-0.40;96183.00;;;;5035272;28;20236;-63
2023/01/26 07:36:52;;;;;;;1.97;1.87;;;;;-0.30;96179.00;;;;5035110;28;20202;-62
2023/01/26 07:39:19;;;;;;;0.83;0.83;;;;;-0.40;96182.00;;;;5035106;28;20281;-63
2023/01/26 07:41:47;;;;;;;3.17;2.87;;;;;-0.30;96172.00;;;;5035292;28;20195;-61
2023/01/26 07:44:14;;;;;;;1.93;1.00;;;;;-0.30;96184.00;;;;5034854;28;20222;-62
2023/01/26 07:46:43;;;;;;;1.27;1.27;;;;;-0.30;96177.00;;;;5017046;28;20654;-62
2023/01/26 07:49:11;;;;;;;1.20;1.20;;;;;-0.20;96182.00;;;;5035049;28;20214;-61
2023/01/26 07:51:39;;;;;;;1.60;1.50;;;;;-0.10;96169.00;;;;5017084;28;20667;-61
2023/01/26 07:54:09;;;;;;;2.53;2.33;;;;;-0.20;96174.00;;;;5034611;28;20197;-62
2023/01/26 07:56:37;;;;;;;2.20;1.63;;;;;-0.20;96174.00;;;;5030342;28;20248;-63
2023/01/26 07:59:05;;;;;;;1.20;1.20;;;;;-0.20;96177.00;;;;5031335;28;20217;-65
2023/01/26 08:01:32;;;;;;;2.07;1.87;;;;;-0.30;96174.00;;;;5031786;28;20197;-65
2023/01/26 08:04:01;;;;;;;1.27;1.27;;;;;-0.30;96174.00;;;;5031816;28;20216;-65
2023/01/26 08:06:28;;;;;;;1.23;1.23;;;;;-0.20;96160.00;;;;5032636;28;20241;-64
2023/01/26 08:08:56;;;;;;;1.17;1.17;;;;;-0.10;96170.00;;;;5031058;28;20197;-61
2023/01/26 08:11:25;;;;;;;1.57;1.47;;;;;-0.20;96168.00;;;;5032307;28;20199;-61
2023/01/26 08:13:53;;;;;;;1.70;1.60;;;;;-0.10;96172.00;;;;5032402;28;20249;-61
2023/01/26 08:16:20;;;;;;;1.90;1.80;;;;;-0.20;96171.00;;;;5031143;28;20735;-61
2023/01/26 08:18:48;;;;;;;5.07;2.00;;;;;-0.20;96179.00;;;;5032157;28;20209;-61
2023/01/26 08:21:19;;;;;;;1.57;1.57;;;;;-0.20;96186.00;;;;5030190;28;20210;-61
2023/01/26 08:23:49;;;;;;;2.57;2.37;;;;;-0.10;96185.00;;;;5032534;28;20209;-61
2023/01/26 08:26:17;;;;;;;1.73;1.63;;;;;-0.20;96175.00;;;;4508129;23;15053927;-66
2023/01/26 08:28:45;;;;;;;6.27;2.07;;;;;-0.10;96172.00;;;;5032614;28;20568;-67
2023/01/26 08:31:17;;;;;;;2.13;2.03;;;;;-0.20;96179.00;;;;5030712;28;20665;-67
2023/01/26 08:33:45;;;;;;;2.27;2.17;;;;;-0.20;96175.00;;;;5032383;28;20265;-67
2023/01/26 08:36:15;;;;;;;3.67;2.43;;;;;-0.30;96180.00;;;;5031680;28;20225;-67
2023/01/26 08:38:43;;;;;;;2.00;1.77;;;;;-0.30;96180.00;;;;5031962;28;20601;-67
2023/01/26 08:41:11;;;;;;;1.77;1.67;;;;;-0.40;96176.00;;;;5032249;28;20279;-67
2023/01/26 08:43:39;;;;;;;2.10;2.00;;;;;-0.30;96182.00;;;;5032135;28;20220;-67
2023/01/26 08:46:07;;;;;;;1.67;1.57;;;;;-0.30;96176.00;;;;5032209;28;20222;-66
2023/01/26 08:48:34;;;;;;;1.20;1.20;;;;;-0.30;96181.00;;;;5023019;28;20194;-66
2023/01/26 08:51:04;;;;;;;2.23;2.00;;;;;-0.40;96176.00;;;;5022597;28;20200;-66
2023/01/26 08:53:34;;;;;;;1.23;1.23;;;;;-0.40;96171.00;;;;5032346;28;20561;-66
2023/01/26 08:56:03;;;;;;;2.43;2.30;;;;;-0.40;96172.00;;;;5031083;28;20247;-68
2023/01/26 08:58:31;;;;;;;2.23;2.13;;;;;-0.40;96171.00;;;;5032154;28;20201;-69
2023/01/26 09:00:59;;;;;;;1.83;1.73;;;;;-0.40;96171.00;;;;5031570;28;20226;-67
2023/01/26 09:03:26;;;;;;;1.73;1.60;;;;;-0.40;96171.00;;;;5031388;28;20222;-67
2023/01/26 09:05:58;;;;;;;2.37;1.87;;;;;-0.40;96168.00;;;;5031262;28;20301;-67
2023/01/26 09:08:26;;;;;;;1.53;1.43;;;;;-0.40;96172.00;;;;5047160;28;20209;-67
2023/01/26 09:10:55;;;;;;;2.23;2.03;;;;;-0.30;96180.00;;;;5031147;28;20902;-67
2023/01/26 09:13:22;;;;;;;7.07;2.97;;;;;-0.70;96173.00;;;;5031618;28;20197;-67
2023/01/26 09:15:50;;;;;;;3.03;2.83;;;;;-0.70;96175.00;;;;5031435;28;20218;-67
2023/01/26 09:18:18;;;;;;;7.10;1.87;;;;;-0.70;96178.00;;;;5031783;28;20276;-67
2023/01/26 09:20:45;;;;;;;2.33;2.13;;;;;-0.70;96169.00;;;;5029777;28;20200;-67
2023/01/26 09:23:15;;;;;;;2.23;2.07;;;;;-0.70;96174.00;;;;5031174;28;20221;-67
2023/01/26 09:25:42;;;;;;;2.37;2.27;;;;;-0.70;96178.00;;;;5030822;28;20248;-67
2023/01/26 09:28:11;;;;;;;2.43;2.23;;;;;-0.60;96168.00;;;;5031668;28;20193;-67
2023/01/26 09:30:38;;;;;;;1.77;1.60;;;;;-0.50;96174.00;;;;5029293;28;20643;-67
2023/01/26 09:33:06;;;;;;;3.10;2.07;;;;;-0.50;96171.00;;;;5031724;28;20232;-68
2023/01/26 09:35:34;;;;;;;2.03;1.67;;;;;-0.40;96184.00;;;;5028465;28;20598;-68
2023/01/26 09:38:02;;;;;;;1.87;1.77;;;;;-0.50;96177.00;;;;5031310;28;20575;-67
2023/01/26 09:40:37;;;;;;;2.33;2.00;;;;;-0.60;96187.00;;;;5031127;28;20225;-66
2023/01/26 09:43:24;;;;;;;3.23;2.93;;;;;-0.60;96183.00;;;;5030612;28;20212;-69
2023/01/26 09:46:00;;;;;;;1.27;1.27;;;;;-0.70;96182.00;;;;5030706;28;20727;-67
2023/01/26 09:48:37;;;;;;;3.50;2.17;;;;;-0.80;96176.00;;;;5031006;28;20192;-67
2023/01/26 09:51:10;;;;;;;1.60;1.47;;;;;-0.80;96179.00;;;;5030216;28;20295;-67
2023/01/26 09:53:46;;;;;;;5.30;3.17;;;;;-0.70;96177.00;;;;5030251;28;20203;-67
2023/01/26 09:56:18;;;;;;;3.00;2.80;;;;;-0.60;96183.00;;;;5030992;28;20246;-67
2023/01/26 09:58:53;;;;;;;2.30;2.17;;;;;-0.60;96183.00;;;;5031242;28;20197;-68
2023/01/26 10:01:29;;;;;;;1.43;1.37;;;;;-0.60;96180.00;;;;5031102;28;20232;-66
2023/01/26 10:04:04;;;;;;;4.23;2.07;;;;;-0.60;96195.00;;;;5031721;28;20209;-68
2023/01/26 10:06:32;;;;;;;3.80;3.20;;;;;-0.60;96184.00;;;;5022488;28;20234;-66
2023/01/26 10:09:02;;;;;;;4.00;2.83;;;;;-0.70;96177.00;;;;5029681;28;20660;-68
2023/01/26 10:11:37;;;;;;;2.00;1.90;;;;;-0.80;96176.00;;;;5030836;28;20194;-67
2023/01/26 10:14:13;;;;;;;2.07;1.97;;;;;-0.70;96176.00;;;;5030688;28;20191;-67
2023/01/26 10:16:43;;;;;;;2.60;2.40;;;;;-0.70;96173.00;;;;5031046;28;20700;-69
2023/01/26 10:19:15;;;;;;;2.20;2.10;;;;;-0.70;96175.00;;;;5030996;28;20564;-66
2023/01/26 10:21:47;;;;;;;8.40;3.40;;;;;-0.70;96178.00;;;;5030674;28;20648;-66
2023/01/26 10:24:20;;;;;;;1.83;1.73;;;;;-0.70;96165.00;;;;5030700;28;20216;-67
2023/01/26 10:26:49;;;;;;;3.57;2.67;;;;;-0.80;96165.00;;;;5032261;28;20220;-66
2023/01/26 10:29:19;;;;;;;2.40;2.30;;;;;-1.00;96161.00;;;;5033301;28;20270;-67
2023/01/26 10:31:47;;;;;;;3.70;2.73;;;;;-0.90;96160.00;;;;5034538;28;20279;-66
2023/01/26 10:34:16;;;;;;;2.23;2.03;;;;;-0.70;96160.00;;;;5034218;28;20205;-67
2023/01/26 10:36:46;;;;;;;3.30;3.00;;;;;-0.60;96166.00;;;;5034559;28;20304;-67
2023/01/26 10:39:16;;;;;;;2.10;2.00;;;;;-0.60;96172.00;;;;5033363;28;20251;-67
2023/01/26 10:41:58;;;;;;;1.40;1.40;;;;;-0.50;96169.00;;;;5033286;28;20216;-66
2023/01/26 10:44:32;;;;;;;2.53;2.33;;;;;-0.50;96167.00;;;;5034300;28;20208;-66
2023/01/26 10:47:06;;;;;;;3.17;2.50;;;;;-0.50;96168.00;;;;5025222;28;20717;-66
2023/01/26 10:49:33;;;;;;;2.10;2.00;;;;;-0.40;96178.00;;;;5034360;28;20197;-66
2023/01/26 10:52:14;;;;;;;3.17;2.17;;;;;-0.50;96162.00;;;;5033099;28;20201;-66
2023/01/26 10:54:43;;;;;;;1.50;1.40;;;;;-0.50;96164.00;;;;5033993;28;20181;-66
2023/01/26 10:57:27;;;;;;;1.70;1.60;;;;;-0.50;96160.00;;;;5030108;28;20224;-66
2023/01/26 10:59:59;;;;;;;1.63;1.53;;;;;-0.40;96158.00;;;;5033543;28;20711;-67
2023/01/26 11:02:28;;;;;;;2.33;2.23;;;;;-0.40;96160.00;;;;5033776;28;20193;-66
2023/01/26 11:05:17;;;;;;;2.97;2.67;;;;;-0.40;96159.00;;;;5033562;28;20222;-67
2023/01/26 11:07:47;;;;;;;2.30;2.03;;;;;-0.50;96157.00;;;;5030452;28;20241;-67
2023/01/26 11:10:20;;;;;;;1.77;1.67;;;;;-0.40;96159.00;;;;5034348;28;20228;-67
2023/01/26 11:12:48;;;;;;;4.87;2.87;;;;;-0.40;96153.00;;;;5031812;28;20193;-66
2023/01/26 11:15:22;;;;;;;4.93;2.00;;;;;-0.40;96157.00;;;;5033269;28;20197;-66
2023/01/26 11:17:58;;;;;;;1.77;1.67;;;;;-0.50;96145.00;;;;5032904;28;20638;-66
2023/01/26 11:20:47;;;;;;;2.00;1.90;;;;;-0.50;96148.00;;;;5033878;28;20205;-67
2023/01/26 11:23:22;;;;;;;2.50;2.30;;;;;-0.50;96142.00;;;;5026031;28;20575;-66
2023/01/26 11:26:08;;;;;;;3.63;2.57;;;;;-0.50;96143.00;;;;5029101;28;20238;-68
2023/01/26 11:28:48;;;;;;;1.80;1.70;;;;;-0.50;96134.00;;;;5033356;28;20213;-67
2023/01/26 11:31:29;;;;;;;3.43;1.80;;;;;-0.50;96138.00;;;;5033647;28;20201;-67
2023/01/26 11:34:03;;;;;;;2.43;1.53;;;;;-0.70;96142.00;;;;5033345;28;20653;-66
2023/01/26 11:36:40;;;;;;;3.90;3.43;;;;;-0.60;96129.00;;;;5033859;28;20622;-67
2023/01/26 11:39:17;;;;;;;3.30;3.00;;;;;-0.90;96117.00;;;;5023998;28;20235;-67
2023/01/26 11:41:58;;;;;;;2.53;2.23;;;;;-0.70;96125.00;;;;5033067;28;20272;-67
2023/01/26 11:44:37;;;;;;;2.37;1.93;;;;;-0.80;96127.00;;;;5033179;28;20568;-66
2023/01/26 11:47:16;;;;;;;2.97;2.77;;;;;-0.70;96122.00;;;;5024905;28;20294;-67
2023/01/26 11:50:03;;;;;;;2.50;2.30;;;;;-0.80;96116.00;;;;5032520;28;20189;-67
2023/01/26 11:52:41;;;;;;;1.90;1.80;;;;;-0.60;96111.00;;;;5033331;28;20699;-66
2023/01/26 11:55:31;;;;;;;3.60;1.67;;;;;-0.70;96110.00;;;;5032499;28;20264;-66
2023/01/26 11:58:17;;;;;;;6.43;2.00;;;;;-0.70;96112.00;;;;5033214;28;20236;-67
2023/01/26 12:00:50;;;;;;;1.60;1.50;;;;;-0.60;96112.00;;;;5027051;28;20197;-66
2023/01/26 12:03:26;;;;;;;2.37;2.27;;;;;-0.70;96115.00;;;;5032786;28;20599;-66
2023/01/26 12:05:58;;;;;;;2.20;2.10;;;;;-0.70;96110.00;;;;5032778;28;20687;-66
2023/01/26 12:08:37;;;;;;;2.70;2.10;;;;;-0.70;96112.00;;;;5032190;28;20201;-66
2023/01/26 12:11:22;;;;;;;2.40;2.30;;;;;-0.70;96107.00;;;;5031301;28;20200;-69
2023/01/26 12:13:56;;;;;;;1.53;1.47;;;;;-0.70;96101.00;;;;5031741;28;20271;-68
2023/01/26 12:16:30;;;;;;;3.27;2.73;;;;;-0.70;96091.00;;;;5030774;28;20217;-68
2023/01/26 12:19:06;;;;;;;2.27;2.07;;;;;-0.70;96098.00;;;;5032057;28;20189;-68
2023/01/26 12:21:37;;;;;;;2.23;1.37;;;;;-0.70;96096.00;;;;5032321;28;20185;-68
2023/01/26 12:24:08;;;;;;;1.47;1.47;;;;;-0.80;96074.00;;;;5032071;28;20299;-67
2023/01/26 12:26:41;;;;;;;1.80;1.57;;;;;-0.90;96081.00;;;;5032512;28;20653;-67
2023/01/26 12:29:16;;;;;;;2.37;2.23;;;;;-0.80;96080.00;;;;5031897;28;20196;-67
2023/01/26 12:31:49;;;;;;;1.80;1.70;;;;;-0.80;96083.00;;;;5032214;28;20203;-67
2023/01/26 12:34:21;;;;;;;3.13;1.90;;;;;-0.80;96085.00;;;;5032042;28;20185;-67
2023/01/26 12:36:58;;;;;;;1.70;1.60;;;;;-0.70;96085.00;;;;5032262;28;20219;-67
2023/01/26 12:39:33;;;;;;;1.27;1.27;;;;;-0.60;96078.00;;;;5032127;28;20201;-67
2023/01/26 12:42:13;;;;;;;2.40;2.13;;;;;-0.60;96077.00;;;;5031935;28;20185;-67
2023/01/26 12:44:42;;;;;;;3.10;2.53;;;;;-0.70;96070.00;;;;5031842;28;20208;-67
2023/01/26 12:47:18;;;;;;;1.73;1.63;;;;;-0.60;96075.00;;;;5031706;28;20220;-67
2023/01/26 12:49:54;;;;;;;1.37;1.33;;;;;-0.70;96068.00;;;;5032076;28;20279;-67
2023/01/26 12:52:26;;;;;;;1.13;1.13;;;;;-0.60;96075.00;;;;5030588;28;20252;-67
2023/01/26 12:55:00;;;;;;;2.33;2.23;;;;;-0.60;96068.00;;;;5031768;28;20193;-67
2023/01/26 12:57:35;;;;;;;2.50;2.40;;;;;-0.60;96071.00;;;;5031661;28;20782;-67
2023/01/26 13:00:17;;;;;;;2.50;2.37;;;;;-0.70;96068.00;;;;5032193;28;20214;-67
2023/01/26 13:02:48;;;;;;;2.43;2.23;;;;;-0.80;96072.00;;;;5031654;28;20190;-67
2023/01/26 13:05:27;;;;;;;2.60;2.37;;;;;-0.80;96062.00;;;;5031476;28;20321;-68
2023/01/26 13:07:55;;;;;;;1.67;1.57;;;;;-0.70;96063.00;;;;5031912;28;20543;-67
2023/01/26 13:10:45;;;;;;;1.53;1.43;;;;;-0.80;96068.00;;;;5031939;28;20200;-67
2023/01/26 13:13:31;;;;;;;5.23;2.33;;;;;-0.80;96076.00;;;;5031573;28;20216;-69
2023/01/26 13:16:33;;;;;;;1.80;1.70;;;;;-0.60;96078.00;;;;5031368;28;20212;-67
2023/01/26 13:19:02;;;;;;;1.90;1.73;;;;;-0.70;96080.00;;;;5031745;28;20196;-68
2023/01/26 13:21:43;;;;;;;1.57;1.47;;;;;-0.70;96064.00;;;;5031361;28;20205;-69
2023/01/26 13:24:42;;;;;;;1.20;1.20;;;;;-0.80;96057.00;;;;5031297;28;20212;-67